sensor_id;sensor_type;location;lat;lon;timestamp;temperature;humidity
23827;DHT22;12094;50.822;4.376;2024-03-23T00:54:14;8.40;99.90
23827;DHT22;12094;50.822;4.376;2024-03-23T00:56:42;8.20;99.90
23827;DHT22;12094;50.822;4.376;2024-03-23T00:59:14;8.30;99.90
23827;DHT22;12094;50.822;4.376;2024-03-23T01:01:42;8.30;99.90
23827;DHT22;12094;50.822;4.376;2024-03-23T01:04:10;8.40;99.90
23827;DHT22;12094;50.822;4.376;2024-03-23T01:06:37;8.50;99.90
23827;DHT22;12094;50.822;4.376;2024-03-23T01:09:04;8.60;99.90
23827;DHT22;12094;50.822;4.376;2024-03-23T01:11:32;8.60;99.90
23827;DHT22;12094;50.822;4.376;2024-03-23T01:14:01;8.60;99.90
23827;DHT22;12094;50.822;4.376;2024-03-23T01:16:29;8.60;99.90
23827;DHT22;12094;50.822;4.376;2024-03-23T01:18:55;8.50;99.90
23827;DHT22;12094;50.822;4.376;2024-03-23T01:21:22;8.40;99.90
23827;DHT22;12094;50.822;4.376;2024-03-23T01:23:48;8.20;99.90
23827;DHT22;12094;50.822;4.376;2024-03-23T01:26:14;8.20;99.90
23827;DHT22;12094;50.822;4.376;2024-03-23T01:28:41;8.10;99.90
23827;DHT22;12094;50.822;4.376;2024-03-23T01:31:12;8.10;99.90
23827;DHT22;12094;50.822;4.376;2024-03-23T01:33:41;8.20;99.90
23827;DHT22;12094;50.822;4.376;2024-03-23T01:36:07;8.20;99.90
23827;DHT22;12094;50.822;4.376;2024-03-23T01:38:33;8.20;99.90
23827;DHT22;12094;50.822;4.376;2024-03-23T01:40:59;8.10;99.90
23827;DHT22;12094;50.822;4.376;2024-03-23T01:43:26;8.00;99.90
23827;DHT22;12094;50.822;4.376;2024-03-23T01:45:52;7.80;99.90
23827;DHT22;12094;50.822;4.376;2024-03-23T01:48:20;7.80;99.90
23827;DHT22;12094;50.822;4.376;2024-03-23T01:50:47;7.90;99.90
23827;DHT22;12094;50.822;4.376;2024-03-23T01:53:15;7.90;99.90
23827;DHT22;12094;50.822;4.376;2024-03-23T01:55:43;7.80;99.90
23827;DHT22;12094;50.822;4.376;2024-03-23T01:58:09;7.80;99.90
23827;DHT22;12094;50.822;4.376;2024-03-23T02:00:36;7.80;99.90
23827;DHT22;12094;50.822;4.376;2024-03-23T02:03:02;7.80;99.90
23827;DHT22;12094;50.822;4.376;2024-03-23T02:05:47;7.80;99.90
23827;DHT22;12094;50.822;4.376;2024-03-23T02:08:13;7.80;99.90
23827;DHT22;12094;50.822;4.376;2024-03-23T02:10:42;7.80;99.90
23827;DHT22;12094;50.822;4.376;2024-03-23T02:13:08;7.70;99.90
23827;DHT22;12094;50.822;4.376;2024-03-23T02:15:34;7.80;99.90
23827;DHT22;12094;50.822;4.376;2024-03-23T02:18:01;7.80;99.90
23827;DHT22;12094;50.822;4.376;2024-03-23T02:20:27;7.80;99.90
23827;DHT22;12094;50.822;4.376;2024-03-23T02:22:56;8.00;99.90
23827;DHT22;12094;50.822;4.376;2024-03-23T02:25:31;8.10;99.90
23827;DHT22;12094;50.822;4.376;2024-03-23T02:27:59;8.10;99.90
23827;DHT22;12094;50.822;4.376;2024-03-23T02:30:27;8.20;99.90
23827;DHT22;12094;50.822;4.376;2024-03-23T02:33:02;8.40;99.90
23827;DHT22;12094;50.822;4.376;2024-03-23T02:35:28;8.40;99.90
23827;DHT22;12094;50.822;4.376;2024-03-23T02:37:55;8.30;99.90
23827;DHT22;12094;50.822;4.376;2024-03-23T02:40:33;8.50;99.90
23827;DHT22;12094;50.822;4.376;2024-03-23T02:45:50;8.50;99.90
23827;DHT22;12094;50.822;4.376;2024-03-23T02:48:16;8.50;99.90
23827;DHT22;12094;50.822;4.376;2024-03-23T02:50:43;8.50;99.90
23827;DHT22;12094;50.822;4.376;2024-03-23T02:53:09;8.50;99.90
23827;DHT22;12094;50.822;4.376;2024-03-23T02:55:36;8.60;99.90
23827;DHT22;12094;50.822;4.376;2024-03-23T02:58:03;8.50;99.90
23827;DHT22;12094;50.822;4.376;2024-03-23T03:00:29;8.50;99.90
23827;DHT22;12094;50.822;4.376;2024-03-23T03:06:32;8.50;99.90
23827;DHT22;12094;50.822;4.376;2024-03-23T03:09:02;8.60;99.90
23827;DHT22;12094;50.822;4.376;2024-03-23T03:11:31;8.50;99.90
23827;DHT22;12094;50.822;4.376;2024-03-23T03:13:58;8.50;99.90
23827;DHT22;12094;50.822;4.376;2024-03-23T03:16:26;8.50;99.90
23827;DHT22;12094;50.822;4.376;2024-03-23T03:18:53;8.40;99.90
23827;DHT22;12094;50.822;4.376;2024-03-23T03:21:20;8.30;99.90
23827;DHT22;12094;50.822;4.376;2024-03-23T03:23:46;8.50;99.90
23827;DHT22;12094;50.822;4.376;2024-03-23T03:26:16;8.50;99.90
23827;DHT22;12094;50.822;4.376;2024-03-23T03:28:44;8.60;99.90
23827;DHT22;12094;50.822;4.376;2024-03-23T03:31:15;8.50;99.90
23827;DHT22;12094;50.822;4.376;2024-03-23T03:33:42;8.50;99.90
23827;DHT22;12094;50.822;4.376;2024-03-23T03:36:09;8.50;99.90
23827;DHT22;12094;50.822;4.376;2024-03-23T03:38:36;8.50;99.90
23827;DHT22;12094;50.822;4.376;2024-03-23T03:41:05;8.30;99.90
23827;DHT22;12094;50.822;4.376;2024-03-23T03:43:38;8.40;99.90
23827;DHT22;12094;50.822;4.376;2024-03-23T03:52:35;8.40;99.90
23827;DHT22;12094;50.822;4.376;2024-03-23T03:55:06;8.40;99.90
23827;DHT22;12094;50.822;4.376;2024-03-23T03:57:40;8.30;99.90
23827;DHT22;12094;50.822;4.376;2024-03-23T04:02:57;8.20;99.90
23827;DHT22;12094;50.822;4.376;2024-03-23T04:05:24;8.20;99.90
23827;DHT22;12094;50.822;4.376;2024-03-23T04:07:50;8.20;99.90
23827;DHT22;12094;50.822;4.376;2024-03-23T04:10:18;8.30;99.90
23827;DHT22;12094;50.822;4.376;2024-03-23T04:15:59;8.40;99.90
23827;DHT22;12094;50.822;4.376;2024-03-23T04:18:28;8.50;99.90
23827;DHT22;12094;50.822;4.376;2024-03-23T04:24:57;8.20;99.90
23827;DHT22;12094;50.822;4.376;2024-03-23T04:31:24;8.30;99.90
23827;DHT22;12094;50.822;4.376;2024-03-23T04:48:53;8.30;99.90
23827;DHT22;12094;50.822;4.376;2024-03-23T04:55:21;8.50;99.90
23827;DHT22;12094;50.822;4.376;2024-03-23T05:04:50;8.00;99.90
23827;DHT22;12094;50.822;4.376;2024-03-23T05:10:30;8.00;99.90
23827;DHT22;12094;50.822;4.376;2024-03-23T05:15:57;8.10;99.90
23827;DHT22;12094;50.822;4.376;2024-03-23T05:18:25;8.10;99.90
23827;DHT22;12094;50.822;4.376;2024-03-23T05:26:49;7.90;99.90
23827;DHT22;12094;50.822;4.376;2024-03-23T05:35:55;8.00;99.90
23827;DHT22;12094;50.822;4.376;2024-03-23T05:38:30;7.90;99.90
23827;DHT22;12094;50.822;4.376;2024-03-23T05:41:01;7.90;99.90
23827;DHT22;12094;50.822;4.376;2024-03-23T05:43:28;7.90;99.90
23827;DHT22;12094;50.822;4.376;2024-03-23T05:45:56;7.90;99.90
23827;DHT22;12094;50.822;4.376;2024-03-23T05:48:23;8.00;99.90
23827;DHT22;12094;50.822;4.376;2024-03-23T05:50:50;7.90;99.90
23827;DHT22;12094;50.822;4.376;2024-03-23T05:53:22;7.70;99.90
23827;DHT22;12094;50.822;4.376;2024-03-23T05:55:51;7.60;99.90
23827;DHT22;12094;50.822;4.376;2024-03-23T06:01:20;7.70;99.90
23827;DHT22;12094;50.822;4.376;2024-03-23T06:03:49;7.60;99.90
23827;DHT22;12094;50.822;4.376;2024-03-23T06:06:18;7.70;99.90
23827;DHT22;12094;50.822;4.376;2024-03-23T06:08:45;7.70;99.90
23827;DHT22;12094;50.822;4.376;2024-03-23T06:11:11;7.80;99.90
23827;DHT22;12094;50.822;4.376;2024-03-23T06:13:37;7.90;99.90
23827;DHT22;12094;50.822;4.376;2024-03-23T06:16:04;8.00;99.90
23827;DHT22;12094;50.822;4.376;2024-03-23T06:18:31;8.00;99.90
23827;DHT22;12094;50.822;4.376;2024-03-23T06:20:57;8.00;99.90
23827;DHT22;12094;50.822;4.376;2024-03-23T06:31:23;7.90;99.90
23827;DHT22;12094;50.822;4.376;2024-03-23T06:33:50;7.90;99.90
23827;DHT22;12094;50.822;4.376;2024-03-23T06:36:17;7.80;99.90
23827;DHT22;12094;50.822;4.376;2024-03-23T06:38:47;7.90;99.90
23827;DHT22;12094;50.822;4.376;2024-03-23T06:41:17;8.00;99.90
23827;DHT22;12094;50.822;4.376;2024-03-23T06:43:44;7.90;99.90
23827;DHT22;12094;50.822;4.376;2024-03-23T06:46:11;7.70;99.90
23827;DHT22;12094;50.822;4.376;2024-03-23T06:48:38;7.50;99.90
23827;DHT22;12094;50.822;4.376;2024-03-23T06:51:05;7.50;99.90
23827;DHT22;12094;50.822;4.376;2024-03-23T06:53:32;7.40;99.90
23827;DHT22;12094;50.822;4.376;2024-03-23T06:56:01;7.40;99.90
23827;DHT22;12094;50.822;4.376;2024-03-23T06:58:31;7.40;99.90
23827;DHT22;12094;50.822;4.376;2024-03-23T07:00:58;7.50;99.90
23827;DHT22;12094;50.822;4.376;2024-03-23T07:03:25;7.70;99.90
23827;DHT22;12094;50.822;4.376;2024-03-23T07:05:53;7.70;99.90
23827;DHT22;12094;50.822;4.376;2024-03-23T07:08:23;7.90;99.90
23827;DHT22;12094;50.822;4.376;2024-03-23T07:10:49;8.00;99.90
23827;DHT22;12094;50.822;4.376;2024-03-23T07:15:52;7.90;99.90
23827;DHT22;12094;50.822;4.376;2024-03-23T07:18:18;7.90;99.90
23827;DHT22;12094;50.822;4.376;2024-03-23T07:20:56;7.60;99.90
23827;DHT22;12094;50.822;4.376;2024-03-23T07:23:25;7.50;99.90
23827;DHT22;12094;50.822;4.376;2024-03-23T07:26:00;7.50;99.90
23827;DHT22;12094;50.822;4.376;2024-03-23T07:28:28;7.30;99.90
23827;DHT22;12094;50.822;4.376;2024-03-23T07:33:46;7.30;99.90
23827;DHT22;12094;50.822;4.376;2024-03-23T07:36:14;7.50;99.90
23827;DHT22;12094;50.822;4.376;2024-03-23T07:38:41;7.50;99.90
23827;DHT22;12094;50.822;4.376;2024-03-23T07:44:43;7.60;99.90
23827;DHT22;12094;50.822;4.376;2024-03-23T07:47:13;7.80;99.90
23827;DHT22;12094;50.822;4.376;2024-03-23T07:49:42;7.80;99.90
23827;DHT22;12094;50.822;4.376;2024-03-23T07:52:10;7.70;99.90
23827;DHT22;12094;50.822;4.376;2024-03-23T07:54:37;7.80;99.90
23827;DHT22;12094;50.822;4.376;2024-03-23T07:57:09;7.90;99.90
23827;DHT22;12094;50.822;4.376;2024-03-23T07:59:37;8.00;99.90
23827;DHT22;12094;50.822;4.376;2024-03-23T08:02:09;8.10;99.90
23827;DHT22;12094;50.822;4.376;2024-03-23T08:04:36;8.10;99.90
23827;DHT22;12094;50.822;4.376;2024-03-23T08:07:03;8.40;99.90
23827;DHT22;12094;50.822;4.376;2024-03-23T08:09:32;8.50;99.90
23827;DHT22;12094;50.822;4.376;2024-03-23T08:12:01;8.60;99.90
23827;DHT22;12094;50.822;4.376;2024-03-23T08:14:28;8.50;99.90
23827;DHT22;12094;50.822;4.376;2024-03-23T08:16:56;8.50;99.90
23827;DHT22;12094;50.822;4.376;2024-03-23T08:19:24;8.50;99.90
23827;DHT22;12094;50.822;4.376;2024-03-23T08:21:51;8.60;99.90
23827;DHT22;12094;50.822;4.376;2024-03-23T08:24:18;8.60;99.90
23827;DHT22;12094;50.822;4.376;2024-03-23T08:26:45;8.20;99.90
23827;DHT22;12094;50.822;4.376;2024-03-23T08:33:12;8.20;99.90
23827;DHT22;12094;50.822;4.376;2024-03-23T08:38:29;8.80;99.90
23827;DHT22;12094;50.822;4.376;2024-03-23T08:41:10;8.60;99.90
23827;DHT22;12094;50.822;4.376;2024-03-23T08:49:36;8.90;99.90
23827;DHT22;12094;50.822;4.376;2024-03-23T08:52:13;8.90;99.90
23827;DHT22;12094;50.822;4.376;2024-03-23T08:58:02;9.00;99.90
23827;DHT22;12094;50.822;4.376;2024-03-23T09:04:30;8.90;99.90
23827;DHT22;12094;50.822;4.376;2024-03-23T09:16:08;9.00;99.90
23827;DHT22;12094;50.822;4.376;2024-03-23T09:18:39;9.20;99.90
23827;DHT22;12094;50.822;4.376;2024-03-23T09:21:12;9.20;99.90
23827;DHT22;12094;50.822;4.376;2024-03-23T09:23:44;9.20;99.90
23827;DHT22;12094;50.822;4.376;2024-03-23T09:26:11;9.00;99.90
23827;DHT22;12094;50.822;4.376;2024-03-23T09:28:37;9.10;99.90
23827;DHT22;12094;50.822;4.376;2024-03-23T09:31:06;9.20;99.90
23827;DHT22;12094;50.822;4.376;2024-03-23T09:33:33;9.20;99.90
23827;DHT22;12094;50.822;4.376;2024-03-23T09:36:04;9.20;99.90
23827;DHT22;12094;50.822;4.376;2024-03-23T09:38:34;9.10;99.90
23827;DHT22;12094;50.822;4.376;2024-03-23T09:41:06;9.00;99.90
23827;DHT22;12094;50.822;4.376;2024-03-23T09:43:32;8.90;99.90
23827;DHT22;12094;50.822;4.376;2024-03-23T09:46:01;9.10;99.90
23827;DHT22;12094;50.822;4.376;2024-03-23T09:48:28;9.10;99.90
23827;DHT22;12094;50.822;4.376;2024-03-23T09:50:56;9.30;99.90
23827;DHT22;12094;50.822;4.376;2024-03-23T09:53:22;9.30;99.90
23827;DHT22;12094;50.822;4.376;2024-03-23T09:55:50;9.40;99.90
23827;DHT22;12094;50.822;4.376;2024-03-23T09:58:18;9.60;99.90
23827;DHT22;12094;50.822;4.376;2024-03-23T10:00:45;9.80;99.90
23827;DHT22;12094;50.822;4.376;2024-03-23T10:03:12;9.90;99.90
23827;DHT22;12094;50.822;4.376;2024-03-23T10:05:42;10.20;99.90
23827;DHT22;12094;50.822;4.376;2024-03-23T10:10:42;10.20;99.90
23827;DHT22;12094;50.822;4.376;2024-03-23T10:13:09;10.10;99.90
23827;DHT22;12094;50.822;4.376;2024-03-23T10:15:36;9.90;99.90
23827;DHT22;12094;50.822;4.376;2024-03-23T10:20:43;9.90;99.90
23827;DHT22;12094;50.822;4.376;2024-03-23T10:23:17;10.00;99.90
23827;DHT22;12094;50.822;4.376;2024-03-23T10:25:44;10.10;99.90
23827;DHT22;12094;50.822;4.376;2024-03-23T10:28:12;10.10;99.90
23827;DHT22;12094;50.822;4.376;2024-03-23T10:30:39;10.00;99.90
23827;DHT22;12094;50.822;4.376;2024-03-23T10:33:12;10.10;99.90
23827;DHT22;12094;50.822;4.376;2024-03-23T10:35:43;9.90;99.90
23827;DHT22;12094;50.822;4.376;2024-03-23T10:38:09;9.80;99.90
23827;DHT22;12094;50.822;4.376;2024-03-23T10:40:36;9.80;99.90
23827;DHT22;12094;50.822;4.376;2024-03-23T10:43:06;10.00;99.90
23827;DHT22;12094;50.822;4.376;2024-03-23T10:45:34;10.20;99.90
23827;DHT22;12094;50.822;4.376;2024-03-23T10:48:01;10.20;99.90
23827;DHT22;12094;50.822;4.376;2024-03-23T10:53:20;10.50;99.90
23827;DHT22;12094;50.822;4.376;2024-03-23T10:55:49;10.40;99.90
23827;DHT22;12094;50.822;4.376;2024-03-23T10:58:28;10.20;99.90
23827;DHT22;12094;50.822;4.376;2024-03-23T11:00:55;10.00;99.90
23827;DHT22;12094;50.822;4.376;2024-03-23T11:03:36;9.90;99.90
23827;DHT22;12094;50.822;4.376;2024-03-23T11:06:05;10.20;99.90
23827;DHT22;12094;50.822;4.376;2024-03-23T11:08:39;10.30;99.90
23827;DHT22;12094;50.822;4.376;2024-03-23T11:11:16;10.40;99.90
23827;DHT22;12094;50.822;4.376;2024-03-23T11:13:50;10.80;99.90
23827;DHT22;12094;50.822;4.376;2024-03-23T11:18:51;11.90;99.90
23827;DHT22;12094;50.822;4.376;2024-03-23T11:24:17;11.30;99.90
23827;DHT22;12094;50.822;4.376;2024-03-23T11:26:52;10.80;99.90
23827;DHT22;12094;50.822;4.376;2024-03-23T11:29:20;10.60;99.90
23827;DHT22;12094;50.822;4.376;2024-03-23T11:31:54;10.40;99.90
23827;DHT22;12094;50.822;4.376;2024-03-23T11:34:20;10.40;99.90
23827;DHT22;12094;50.822;4.376;2024-03-23T11:36:46;10.60;99.90
23827;DHT22;12094;50.822;4.376;2024-03-23T11:39:20;11.00;99.90
23827;DHT22;12094;50.822;4.376;2024-03-23T11:41:47;11.50;99.90
23827;DHT22;12094;50.822;4.376;2024-03-23T11:44:20;11.60;99.90
23827;DHT22;12094;50.822;4.376;2024-03-23T11:46:47;11.80;99.90
23827;DHT22;12094;50.822;4.376;2024-03-23T11:49:25;11.60;99.90
23827;DHT22;12094;50.822;4.376;2024-03-23T11:51:54;11.50;99.90
23827;DHT22;12094;50.822;4.376;2024-03-23T11:54:24;12.10;99.90
23827;DHT22;12094;50.822;4.376;2024-03-23T11:57:02;12.90;99.90
23827;DHT22;12094;50.822;4.376;2024-03-23T11:59:40;13.00;99.90
23827;DHT22;12094;50.822;4.376;2024-03-23T12:02:09;12.90;99.90
23827;DHT22;12094;50.822;4.376;2024-03-23T12:04:37;12.00;99.90
23827;DHT22;12094;50.822;4.376;2024-03-23T12:07:10;11.80;99.90
23827;DHT22;12094;50.822;4.376;2024-03-23T12:09:36;11.70;99.90
23827;DHT22;12094;50.822;4.376;2024-03-23T12:12:10;11.60;99.90
23827;DHT22;12094;50.822;4.376;2024-03-23T12:14:38;11.20;99.90
23827;DHT22;12094;50.822;4.376;2024-03-23T12:17:11;10.80;99.90
23827;DHT22;12094;50.822;4.376;2024-03-23T12:19:49;10.40;99.90
23827;DHT22;12094;50.822;4.376;2024-03-23T12:22:20;10.80;99.90
23827;DHT22;12094;50.822;4.376;2024-03-23T12:24:47;11.00;99.90
23827;DHT22;12094;50.822;4.376;2024-03-23T12:27:13;10.70;99.90
23827;DHT22;12094;50.822;4.376;2024-03-23T12:29:51;10.70;99.90
23827;DHT22;12094;50.822;4.376;2024-03-23T12:32:19;10.30;99.90
23827;DHT22;12094;50.822;4.376;2024-03-23T12:34:49;10.20;99.90
23827;DHT22;12094;50.822;4.376;2024-03-23T12:37:16;10.00;99.90
23827;DHT22;12094;50.822;4.376;2024-03-23T12:39:45;10.00;99.90
23827;DHT22;12094;50.822;4.376;2024-03-23T12:42:13;10.50;99.90
23827;DHT22;12094;50.822;4.376;2024-03-23T12:44:41;11.20;99.90
23827;DHT22;12094;50.822;4.376;2024-03-23T12:47:09;11.80;99.90
23827;DHT22;12094;50.822;4.376;2024-03-23T12:49:38;12.80;99.90
23827;DHT22;12094;50.822;4.376;2024-03-23T12:52:05;14.00;99.90
23827;DHT22;12094;50.822;4.376;2024-03-23T12:54:34;14.70;99.90
23827;DHT22;12094;50.822;4.376;2024-03-23T12:57:01;14.60;99.90
23827;DHT22;12094;50.822;4.376;2024-03-23T12:59:30;14.20;99.40
23827;DHT22;12094;50.822;4.376;2024-03-23T13:01:58;14.10;99.20
23827;DHT22;12094;50.822;4.376;2024-03-23T13:04:28;13.80;97.00
23827;DHT22;12094;50.822;4.376;2024-03-23T13:06:58;14.10;95.90
23827;DHT22;12094;50.822;4.376;2024-03-23T13:09:24;14.50;95.00
23827;DHT22;12094;50.822;4.376;2024-03-23T13:11:50;14.60;93.40
23827;DHT22;12094;50.822;4.376;2024-03-23T13:14:16;14.60;92.90
23827;DHT22;12094;50.822;4.376;2024-03-23T13:16:44;14.70;93.40
23827;DHT22;12094;50.822;4.376;2024-03-23T13:19:11;14.40;93.40
23827;DHT22;12094;50.822;4.376;2024-03-23T13:21:38;13.80;94.60
23827;DHT22;12094;50.822;4.376;2024-03-23T13:24:04;14.00;94.80
23827;DHT22;12094;50.822;4.376;2024-03-23T13:26:30;13.00;94.60
23827;DHT22;12094;50.822;4.376;2024-03-23T13:28:57;13.10;96.20
23827;DHT22;12094;50.822;4.376;2024-03-23T13:31:23;13.80;94.80
23827;DHT22;12094;50.822;4.376;2024-03-23T13:33:53;14.30;94.10
23827;DHT22;12094;50.822;4.376;2024-03-23T13:36:19;14.60;93.70
23827;DHT22;12094;50.822;4.376;2024-03-23T13:41:15;14.70;92.20
23827;DHT22;12094;50.822;4.376;2024-03-23T13:43:42;14.90;92.10
23827;DHT22;12094;50.822;4.376;2024-03-23T13:46:08;14.40;92.50
23827;DHT22;12094;50.822;4.376;2024-03-23T13:55:27;12.90;94.90
23827;DHT22;12094;50.822;4.376;2024-03-23T13:57:53;12.40;96.50
23827;DHT22;12094;50.822;4.376;2024-03-23T14:00:19;12.10;97.30
23827;DHT22;12094;50.822;4.376;2024-03-23T14:02:47;12.30;97.60
23827;DHT22;12094;50.822;4.376;2024-03-23T14:05:14;11.60;98.40
23827;DHT22;12094;50.822;4.376;2024-03-23T14:07:42;11.50;99.30
23827;DHT22;12094;50.822;4.376;2024-03-23T14:10:10;11.50;99.90
23827;DHT22;12094;50.822;4.376;2024-03-23T14:12:37;11.60;99.20
23827;DHT22;12094;50.822;4.376;2024-03-23T14:15:07;11.60;98.50
23827;DHT22;12094;50.822;4.376;2024-03-23T14:17:33;11.80;98.80
23827;DHT22;12094;50.822;4.376;2024-03-23T14:19:59;12.00;98.50
23827;DHT22;12094;50.822;4.376;2024-03-23T14:22:31;12.10;98.60
23827;DHT22;12094;50.822;4.376;2024-03-23T14:24:58;11.90;98.80
23827;DHT22;12094;50.822;4.376;2024-03-23T14:27:24;11.80;99.10
23827;DHT22;12094;50.822;4.376;2024-03-23T14:29:51;11.80;98.90
23827;DHT22;12094;50.822;4.376;2024-03-23T14:32:17;11.30;99.10
23827;DHT22;12094;50.822;4.376;2024-03-23T14:34:43;11.10;99.90
23827;DHT22;12094;50.822;4.376;2024-03-23T14:37:10;11.30;99.90
23827;DHT22;12094;50.822;4.376;2024-03-23T14:39:36;11.00;99.90
23827;DHT22;12094;50.822;4.376;2024-03-23T14:42:05;10.90;99.90
23827;DHT22;12094;50.822;4.376;2024-03-23T14:44:34;11.10;99.90
23827;DHT22;12094;50.822;4.376;2024-03-23T14:47:00;11.30;99.90
23827;DHT22;12094;50.822;4.376;2024-03-23T14:49:27;11.20;99.90
23827;DHT22;12094;50.822;4.376;2024-03-23T14:51:54;11.20;99.90
23827;DHT22;12094;50.822;4.376;2024-03-23T14:54:21;11.20;99.50
23827;DHT22;12094;50.822;4.376;2024-03-23T14:56:48;10.90;99.80
23827;DHT22;12094;50.822;4.376;2024-03-23T14:59:14;11.00;99.90
23827;DHT22;12094;50.822;4.376;2024-03-23T15:01:40;11.30;99.90
23827;DHT22;12094;50.822;4.376;2024-03-23T15:04:07;11.20;99.80
23827;DHT22;12094;50.822;4.376;2024-03-23T15:06:34;11.10;99.90
23827;DHT22;12094;50.822;4.376;2024-03-23T15:09:03;11.30;99.90
23827;DHT22;12094;50.822;4.376;2024-03-23T15:11:34;11.20;99.90
23827;DHT22;12094;50.822;4.376;2024-03-23T15:14:07;11.30;99.90
23827;DHT22;12094;50.822;4.376;2024-03-23T15:16:35;11.20;99.90
23827;DHT22;12094;50.822;4.376;2024-03-23T15:19:01;10.90;99.90
23827;DHT22;12094;50.822;4.376;2024-03-23T15:21:27;10.90;99.90
23827;DHT22;12094;50.822;4.376;2024-03-23T15:23:53;11.00;99.90
23827;DHT22;12094;50.822;4.376;2024-03-23T15:26:19;11.10;99.90
23827;DHT22;12094;50.822;4.376;2024-03-23T15:28:48;11.00;99.90
23827;DHT22;12094;50.822;4.376;2024-03-23T15:31:24;11.00;99.90
23827;DHT22;12094;50.822;4.376;2024-03-23T15:33:52;11.20;99.90
23827;DHT22;12094;50.822;4.376;2024-03-23T15:36:19;11.40;99.90
23827;DHT22;12094;50.822;4.376;2024-03-23T15:38:46;11.10;99.90
23827;DHT22;12094;50.822;4.376;2024-03-23T15:41:15;10.80;99.90
23827;DHT22;12094;50.822;4.376;2024-03-23T15:43:43;10.90;99.90
23827;DHT22;12094;50.822;4.376;2024-03-23T15:46:11;11.00;99.90
23827;DHT22;12094;50.822;4.376;2024-03-23T15:48:41;11.10;99.90
23827;DHT22;12094;50.822;4.376;2024-03-23T15:51:13;11.30;99.90
23827;DHT22;12094;50.822;4.376;2024-03-23T15:53:41;11.30;99.90
23827;DHT22;12094;50.822;4.376;2024-03-23T15:56:08;11.40;99.90
23827;DHT22;12094;50.822;4.376;2024-03-23T15:58:35;11.60;99.90
23827;DHT22;12094;50.822;4.376;2024-03-23T16:01:04;11.50;99.90
23827;DHT22;12094;50.822;4.376;2024-03-23T16:03:32;11.40;99.90
23827;DHT22;12094;50.822;4.376;2024-03-23T16:06:01;11.30;99.90
23827;DHT22;12094;50.822;4.376;2024-03-23T16:08:29;11.20;98.20
23827;DHT22;12094;50.822;4.376;2024-03-23T16:11:04;11.30;98.40
23827;DHT22;12094;50.822;4.376;2024-03-23T16:13:31;11.40;98.10
23827;DHT22;12094;50.822;4.376;2024-03-23T16:16:02;11.60;97.40
23827;DHT22;12094;50.822;4.376;2024-03-23T16:18:37;11.70;97.10
23827;DHT22;12094;50.822;4.376;2024-03-23T16:21:06;11.70;96.80
23827;DHT22;12094;50.822;4.376;2024-03-23T16:23:35;11.40;96.90
23827;DHT22;12094;50.822;4.376;2024-03-23T16:26:03;11.30;97.30
23827;DHT22;12094;50.822;4.376;2024-03-23T16:28:34;11.30;97.60
23827;DHT22;12094;50.822;4.376;2024-03-23T16:31:02;11.20;97.50
23827;DHT22;12094;50.822;4.376;2024-03-23T16:33:30;11.40;97.20
23827;DHT22;12094;50.822;4.376;2024-03-23T16:36:03;11.30;96.80
23827;DHT22;12094;50.822;4.376;2024-03-23T16:38:38;11.30;96.50
23827;DHT22;12094;50.822;4.376;2024-03-23T16:41:09;11.40;96.20
23827;DHT22;12094;50.822;4.376;2024-03-23T16:43:42;11.30;96.70
23827;DHT22;12094;50.822;4.376;2024-03-23T16:46:12;11.30;96.80
23827;DHT22;12094;50.822;4.376;2024-03-23T16:48:42;11.30;97.40
23827;DHT22;12094;50.822;4.376;2024-03-23T16:51:10;11.40;97.20
23827;DHT22;12094;50.822;4.376;2024-03-23T16:53:37;11.30;96.40
23827;DHT22;12094;50.822;4.376;2024-03-23T16:56:05;11.30;96.50
23827;DHT22;12094;50.822;4.376;2024-03-23T16:58:38;11.40;96.40
23827;DHT22;12094;50.822;4.376;2024-03-23T17:01:06;11.50;95.90
23827;DHT22;12094;50.822;4.376;2024-03-23T17:03:39;11.40;95.90
23827;DHT22;12094;50.822;4.376;2024-03-23T17:06:09;11.30;96.20
23827;DHT22;12094;50.822;4.376;2024-03-23T17:08:39;11.30;96.40
23827;DHT22;12094;50.822;4.376;2024-03-23T17:11:06;11.20;96.40
23827;DHT22;12094;50.822;4.376;2024-03-23T17:16:01;11.10;97.20
23827;DHT22;12094;50.822;4.376;2024-03-23T17:18:29;10.80;98.00
23827;DHT22;12094;50.822;4.376;2024-03-23T17:23:30;10.90;98.50
23827;DHT22;12094;50.822;4.376;2024-03-23T17:25:58;10.90;98.90
23827;DHT22;12094;50.822;4.376;2024-03-23T17:28:24;10.90;98.90
23827;DHT22;12094;50.822;4.376;2024-03-23T17:30:51;10.80;99.10
23827;DHT22;12094;50.822;4.376;2024-03-23T17:36:09;10.60;99.70
23827;DHT22;12094;50.822;4.376;2024-03-23T17:38:38;10.60;99.90
23827;DHT22;12094;50.822;4.376;2024-03-23T17:41:04;10.50;99.90
23827;DHT22;12094;50.822;4.376;2024-03-23T17:43:31;10.70;99.90
23827;DHT22;12094;50.822;4.376;2024-03-23T17:49:02;10.70;99.90
23827;DHT22;12094;50.822;4.376;2024-03-23T17:51:31;9.70;99.90
23827;DHT22;12094;50.822;4.376;2024-03-23T17:56:26;9.00;99.90
23827;DHT22;12094;50.822;4.376;2024-03-23T17:58:52;8.80;99.90
23827;DHT22;12094;50.822;4.376;2024-03-23T18:01:19;8.40;99.90
23827;DHT22;12094;50.822;4.376;2024-03-23T18:03:54;8.30;99.90
23827;DHT22;12094;50.822;4.376;2024-03-23T18:06:23;7.90;99.90
23827;DHT22;12094;50.822;4.376;2024-03-23T18:08:49;7.50;99.90
23827;DHT22;12094;50.822;4.376;2024-03-23T18:11:18;7.20;99.90
23827;DHT22;12094;50.822;4.376;2024-03-23T18:13:44;7.10;99.90
23827;DHT22;12094;50.822;4.376;2024-03-23T18:16:11;7.00;99.90
23827;DHT22;12094;50.822;4.376;2024-03-23T18:18:37;7.00;99.90
23827;DHT22;12094;50.822;4.376;2024-03-23T18:21:09;7.10;99.90
23827;DHT22;12094;50.822;4.376;2024-03-23T18:23:36;7.10;99.90
23827;DHT22;12094;50.822;4.376;2024-03-23T18:26:03;7.00;99.90
23827;DHT22;12094;50.822;4.376;2024-03-23T18:28:29;7.10;99.90
23827;DHT22;12094;50.822;4.376;2024-03-23T18:30:59;7.20;99.90
23827;DHT22;12094;50.822;4.376;2024-03-23T18:33:39;7.20;99.90
23827;DHT22;12094;50.822;4.376;2024-03-23T18:36:06;7.20;99.90
23827;DHT22;12094;50.822;4.376;2024-03-23T18:38:34;7.20;99.90
23827;DHT22;12094;50.822;4.376;2024-03-23T18:41:02;7.30;99.90
23827;DHT22;12094;50.822;4.376;2024-03-23T18:43:31;7.40;99.90
23827;DHT22;12094;50.822;4.376;2024-03-23T18:45:59;7.40;99.90
23827;DHT22;12094;50.822;4.376;2024-03-23T18:48:26;7.30;99.90
23827;DHT22;12094;50.822;4.376;2024-03-23T18:50:52;7.00;99.90
23827;DHT22;12094;50.822;4.376;2024-03-23T18:53:20;7.00;99.90
23827;DHT22;12094;50.822;4.376;2024-03-23T18:55:53;6.70;99.90
23827;DHT22;12094;50.822;4.376;2024-03-23T18:58:22;6.80;99.90
23827;DHT22;12094;50.822;4.376;2024-03-23T19:00:56;6.70;99.90
23827;DHT22;12094;50.822;4.376;2024-03-23T19:03:25;6.60;99.90
23827;DHT22;12094;50.822;4.376;2024-03-23T19:05:55;6.50;99.90
23827;DHT22;12094;50.822;4.376;2024-03-23T19:08:25;6.40;99.90
23827;DHT22;12094;50.822;4.376;2024-03-23T19:10:58;6.40;99.90
23827;DHT22;12094;50.822;4.376;2024-03-23T19:13:25;6.30;99.90
23827;DHT22;12094;50.822;4.376;2024-03-23T19:15:54;6.30;99.90
23827;DHT22;12094;50.822;4.376;2024-03-23T19:18:20;6.20;99.90